sensor_id;sensor_type;location;lat;lon;timestamp;P1;durP1;ratioP1;P2;durP2;ratioP2
4186;SDS011;2107;52.306;10.484;2023-06-14T00:01:58;1.10;;;1.10;;
4186;SDS011;2107;52.306;10.484;2023-06-14T00:04:25;0.97;;;0.97;;
4186;SDS011;2107;52.306;10.484;2023-06-14T00:06:52;1.10;;;1.10;;
4186;SDS011;2107;52.306;10.484;2023-06-14T00:09:20;0.90;;;0.90;;
4186;SDS011;2107;52.306;10.484;2023-06-14T00:11:49;1.00;;;1.00;;
4186;SDS011;2107;52.306;10.484;2023-06-14T00:14:16;1.20;;;1.20;;
4186;SDS011;2107;52.306;10.484;2023-06-14T00:16:43;1.30;;;1.30;;
4186;SDS011;2107;52.306;10.484;2023-06-14T00:19:10;0.90;;;0.90;;
4186;SDS011;2107;52.306;10.484;2023-06-14T00:21:37;1.20;;;1.20;;
4186;SDS011;2107;52.306;10.484;2023-06-14T00:24:04;0.90;;;0.90;;
4186;SDS011;2107;52.306;10.484;2023-06-14T00:26:31;1.50;;;1.50;;
4186;SDS011;2107;52.306;10.484;2023-06-14T00:28:59;1.40;;;1.40;;
4186;SDS011;2107;52.306;10.484;2023-06-14T00:31:26;1.43;;;1.43;;
4186;SDS011;2107;52.306;10.484;2023-06-14T00:33:53;1.37;;;1.37;;
4186;SDS011;2107;52.306;10.484;2023-06-14T00:36:20;1.20;;;1.20;;
4186;SDS011;2107;52.306;10.484;2023-06-14T00:38:47;1.50;;;1.50;;
4186;SDS011;2107;52.306;10.484;2023-06-14T00:41:13;1.40;;;1.40;;
4186;SDS011;2107;52.306;10.484;2023-06-14T00:43:40;1.30;;;1.30;;
4186;SDS011;2107;52.306;10.484;2023-06-14T00:46:08;1.50;;;1.50;;
4186;SDS011;2107;52.306;10.484;2023-06-14T00:48:35;1.37;;;1.37;;
4186;SDS011;2107;52.306;10.484;2023-06-14T00:51:03;1.10;;;1.10;;
4186;SDS011;2107;52.306;10.484;2023-06-14T00:53:30;0.90;;;0.90;;
4186;SDS011;2107;52.306;10.484;2023-06-14T00:55:59;0.80;;;0.80;;
4186;SDS011;2107;52.306;10.484;2023-06-14T00:58:26;0.90;;;0.90;;
4186;SDS011;2107;52.306;10.484;2023-06-14T01:00:54;1.10;;;1.10;;
4186;SDS011;2107;52.306;10.484;2023-06-14T01:03:24;0.87;;;0.87;;
4186;SDS011;2107;52.306;10.484;2023-06-14T01:05:53;1.00;;;1.00;;
4186;SDS011;2107;52.306;10.484;2023-06-14T01:08:28;1.20;;;1.20;;
4186;SDS011;2107;52.306;10.484;2023-06-14T01:11:05;1.10;;;1.10;;
4186;SDS011;2107;52.306;10.484;2023-06-14T01:13:38;1.00;;;1.00;;
4186;SDS011;2107;52.306;10.484;2023-06-14T01:16:07;1.00;;;1.00;;
4186;SDS011;2107;52.306;10.484;2023-06-14T01:18:36;0.90;;;0.90;;
4186;SDS011;2107;52.306;10.484;2023-06-14T01:21:03;1.00;;;1.00;;
4186;SDS011;2107;52.306;10.484;2023-06-14T01:23:32;1.00;;;1.00;;
4186;SDS011;2107;52.306;10.484;2023-06-14T01:25:59;0.90;;;0.90;;
4186;SDS011;2107;52.306;10.484;2023-06-14T01:28:28;0.80;;;0.80;;
4186;SDS011;2107;52.306;10.484;2023-06-14T01:30:57;0.80;;;0.80;;
4186;SDS011;2107;52.306;10.484;2023-06-14T01:33:29;0.80;;;0.80;;
4186;SDS011;2107;52.306;10.484;2023-06-14T01:35:57;0.80;;;0.80;;
4186;SDS011;2107;52.306;10.484;2023-06-14T01:38:25;0.70;;;0.70;;
4186;SDS011;2107;52.306;10.484;2023-06-14T01:40:55;0.80;;;0.80;;
4186;SDS011;2107;52.306;10.484;2023-06-14T01:43:24;0.80;;;0.80;;
4186;SDS011;2107;52.306;10.484;2023-06-14T01:45:52;0.80;;;0.80;;
4186;SDS011;2107;52.306;10.484;2023-06-14T01:48:20;0.80;;;0.80;;
4186;SDS011;2107;52.306;10.484;2023-06-14T01:50:47;0.80;;;0.80;;
4186;SDS011;2107;52.306;10.484;2023-06-14T01:53:14;0.70;;;0.70;;
4186;SDS011;2107;52.306;10.484;2023-06-14T01:55:42;0.70;;;0.70;;
4186;SDS011;2107;52.306;10.484;2023-06-14T01:58:12;0.67;;;0.67;;
4186;SDS011;2107;52.306;10.484;2023-06-14T02:00:39;0.80;;;0.80;;
4186;SDS011;2107;52.306;10.484;2023-06-14T02:03:08;0.80;;;0.80;;
4186;SDS011;2107;52.306;10.484;2023-06-14T02:05:36;0.80;;;0.80;;
4186;SDS011;2107;52.306;10.484;2023-06-14T02:08:04;0.70;;;0.70;;
4186;SDS011;2107;52.306;10.484;2023-06-14T02:10:31;0.87;;;0.87;;
4186;SDS011;2107;52.306;10.484;2023-06-14T02:12:58;0.90;;;0.90;;
4186;SDS011;2107;52.306;10.484;2023-06-14T02:15:26;0.73;;;0.73;;
4186;SDS011;2107;52.306;10.484;2023-06-14T02:17:58;0.60;;;0.60;;
4186;SDS011;2107;52.306;10.484;2023-06-14T02:20:26;0.77;;;0.77;;
4186;SDS011;2107;52.306;10.484;2023-06-14T02:22:53;0.90;;;0.90;;
4186;SDS011;2107;52.306;10.484;2023-06-14T02:25:20;1.00;;;1.00;;
4186;SDS011;2107;52.306;10.484;2023-06-14T02:27:47;0.60;;;0.60;;
4186;SDS011;2107;52.306;10.484;2023-06-14T02:30:15;0.90;;;0.90;;
4186;SDS011;2107;52.306;10.484;2023-06-14T02:32:43;1.10;;;1.10;;
4186;SDS011;2107;52.306;10.484;2023-06-14T02:35:10;0.80;;;0.80;;
4186;SDS011;2107;52.306;10.484;2023-06-14T02:37:36;0.53;;;0.53;;
4186;SDS011;2107;52.306;10.484;2023-06-14T02:40:04;0.60;;;0.60;;
4186;SDS011;2107;52.306;10.484;2023-06-14T02:42:32;0.60;;;0.60;;
4186;SDS011;2107;52.306;10.484;2023-06-14T02:44:59;0.70;;;0.70;;
4186;SDS011;2107;52.306;10.484;2023-06-14T02:47:27;0.50;;;0.50;;
4186;SDS011;2107;52.306;10.484;2023-06-14T02:49:56;0.53;;;0.53;;
4186;SDS011;2107;52.306;10.484;2023-06-14T02:52:23;0.50;;;0.50;;
4186;SDS011;2107;52.306;10.484;2023-06-14T02:54:50;0.40;;;0.40;;
4186;SDS011;2107;52.306;10.484;2023-06-14T02:57:17;0.50;;;0.50;;
4186;SDS011;2107;52.306;10.484;2023-06-14T02:59:43;0.50;;;0.50;;
4186;SDS011;2107;52.306;10.484;2023-06-14T03:02:10;0.60;;;0.60;;
4186;SDS011;2107;52.306;10.484;2023-06-14T03:04:37;0.60;;;0.60;;
4186;SDS011;2107;52.306;10.484;2023-06-14T03:07:06;0.60;;;0.60;;
4186;SDS011;2107;52.306;10.484;2023-06-14T03:09:34;0.50;;;0.50;;
4186;SDS011;2107;52.306;10.484;2023-06-14T03:12:02;0.80;;;0.80;;
4186;SDS011;2107;52.306;10.484;2023-06-14T03:14:29;0.70;;;0.70;;
4186;SDS011;2107;52.306;10.484;2023-06-14T03:16:56;0.70;;;0.70;;
4186;SDS011;2107;52.306;10.484;2023-06-14T03:19:24;0.70;;;0.70;;
4186;SDS011;2107;52.306;10.484;2023-06-14T03:21:51;0.80;;;0.80;;
4186;SDS011;2107;52.306;10.484;2023-06-14T03:24:20;0.70;;;0.70;;
4186;SDS011;2107;52.306;10.484;2023-06-14T03:26:46;0.70;;;0.70;;
4186;SDS011;2107;52.306;10.484;2023-06-14T03:29:13;0.50;;;0.50;;
4186;SDS011;2107;52.306;10.484;2023-06-14T03:31:55;0.70;;;0.70;;
4186;SDS011;2107;52.306;10.484;2023-06-14T03:34:23;0.80;;;0.80;;
4186;SDS011;2107;52.306;10.484;2023-06-14T03:36:50;0.50;;;0.50;;
4186;SDS011;2107;52.306;10.484;2023-06-14T03:39:17;0.67;;;0.67;;
4186;SDS011;2107;52.306;10.484;2023-06-14T03:41:45;0.70;;;0.70;;
4186;SDS011;2107;52.306;10.484;2023-06-14T03:46:40;0.60;;;0.60;;
4186;SDS011;2107;52.306;10.484;2023-06-14T03:49:07;0.70;;;0.70;;
4186;SDS011;2107;52.306;10.484;2023-06-14T03:51:35;0.80;;;0.80;;
4186;SDS011;2107;52.306;10.484;2023-06-14T03:54:01;0.70;;;0.70;;
4186;SDS011;2107;52.306;10.484;2023-06-14T03:56:28;0.90;;;0.90;;
4186;SDS011;2107;52.306;10.484;2023-06-14T03:58:56;0.60;;;0.60;;
4186;SDS011;2107;52.306;10.484;2023-06-14T04:01:23;1.10;;;1.10;;
4186;SDS011;2107;52.306;10.484;2023-06-14T04:03:54;0.80;;;0.80;;
4186;SDS011;2107;52.306;10.484;2023-06-14T04:06:22;0.93;;;0.93;;
4186;SDS011;2107;52.306;10.484;2023-06-14T04:08:50;1.00;;;1.00;;
4186;SDS011;2107;52.306;10.484;2023-06-14T04:11:18;0.80;;;0.80;;
4186;SDS011;2107;52.306;10.484;2023-06-14T04:13:45;1.03;;;1.03;;
4186;SDS011;2107;52.306;10.484;2023-06-14T04:16:13;0.80;;;0.80;;
4186;SDS011;2107;52.306;10.484;2023-06-14T04:18:40;1.20;;;1.20;;
4186;SDS011;2107;52.306;10.484;2023-06-14T04:21:07;1.13;;;1.13;;
4186;SDS011;2107;52.306;10.484;2023-06-14T04:23:34;1.00;;;1.00;;
4186;SDS011;2107;52.306;10.484;2023-06-14T04:26:01;1.10;;;1.10;;
4186;SDS011;2107;52.306;10.484;2023-06-14T04:28:28;1.10;;;1.10;;
4186;SDS011;2107;52.306;10.484;2023-06-14T04:30:55;1.20;;;1.20;;
4186;SDS011;2107;52.306;10.484;2023-06-14T04:33:23;1.20;;;1.20;;
4186;SDS011;2107;52.306;10.484;2023-06-14T04:35:50;0.97;;;0.97;;
4186;SDS011;2107;52.306;10.484;2023-06-14T04:38:18;1.50;;;1.50;;
4186;SDS011;2107;52.306;10.484;2023-06-14T04:40:49;1.60;;;1.60;;
4186;SDS011;2107;52.306;10.484;2023-06-14T04:43:18;1.33;;;1.33;;
4186;SDS011;2107;52.306;10.484;2023-06-14T04:45:52;1.60;;;1.60;;
4186;SDS011;2107;52.306;10.484;2023-06-14T04:48:21;1.70;;;1.70;;
4186;SDS011;2107;52.306;10.484;2023-06-14T04:50:49;1.40;;;1.40;;
4186;SDS011;2107;52.306;10.484;2023-06-14T04:53:18;1.67;;;1.67;;
4186;SDS011;2107;52.306;10.484;2023-06-14T04:55:48;1.60;;;1.60;;
4186;SDS011;2107;52.306;10.484;2023-06-14T04:58:15;1.40;;;1.40;;
4186;SDS011;2107;52.306;10.484;2023-06-14T05:00:42;1.30;;;1.30;;
4186;SDS011;2107;52.306;10.484;2023-06-14T05:03:09;1.30;;;1.30;;
4186;SDS011;2107;52.306;10.484;2023-06-14T05:05:38;1.27;;;1.27;;
4186;SDS011;2107;52.306;10.484;2023-06-14T05:08:07;1.40;;;1.40;;
4186;SDS011;2107;52.306;10.484;2023-06-14T05:10:34;1.30;;;1.30;;
4186;SDS011;2107;52.306;10.484;2023-06-14T05:13:01;1.20;;;1.20;;
4186;SDS011;2107;52.306;10.484;2023-06-14T05:15:28;1.20;;;1.20;;
4186;SDS011;2107;52.306;10.484;2023-06-14T05:17:55;1.10;;;1.10;;
4186;SDS011;2107;52.306;10.484;2023-06-14T05:20:22;1.10;;;1.10;;
4186;SDS011;2107;52.306;10.484;2023-06-14T05:22:51;0.90;;;0.90;;
4186;SDS011;2107;52.306;10.484;2023-06-14T05:25:20;0.80;;;0.80;;
4186;SDS011;2107;52.306;10.484;2023-06-14T05:27:47;0.80;;;0.80;;
4186;SDS011;2107;52.306;10.484;2023-06-14T05:30:14;0.80;;;0.80;;
4186;SDS011;2107;52.306;10.484;2023-06-14T05:32:41;0.90;;;0.90;;
4186;SDS011;2107;52.306;10.484;2023-06-14T05:35:09;1.13;;;1.13;;
4186;SDS011;2107;52.306;10.484;2023-06-14T05:37:36;1.10;;;1.10;;
4186;SDS011;2107;52.306;10.484;2023-06-14T05:40:03;1.00;;;1.00;;
4186;SDS011;2107;52.306;10.484;2023-06-14T05:42:33;1.00;;;1.00;;
4186;SDS011;2107;52.306;10.484;2023-06-14T05:45:00;1.10;;;1.10;;
4186;SDS011;2107;52.306;10.484;2023-06-14T05:47:27;1.00;;;1.00;;
4186;SDS011;2107;52.306;10.484;2023-06-14T05:49:53;1.00;;;1.00;;
4186;SDS011;2107;52.306;10.484;2023-06-14T05:52:20;1.10;;;1.10;;
4186;SDS011;2107;52.306;10.484;2023-06-14T05:54:47;1.20;;;1.20;;
4186;SDS011;2107;52.306;10.484;2023-06-14T05:57:14;1.10;;;1.10;;
4186;SDS011;2107;52.306;10.484;2023-06-14T05:59:42;1.27;;;1.27;;
4186;SDS011;2107;52.306;10.484;2023-06-14T06:02:10;1.10;;;1.10;;
4186;SDS011;2107;52.306;10.484;2023-06-14T06:04:36;1.07;;;1.07;;
4186;SDS011;2107;52.306;10.484;2023-06-14T06:07:03;0.80;;;0.80;;
4186;SDS011;2107;52.306;10.484;2023-06-14T06:09:31;1.23;;;1.23;;
4186;SDS011;2107;52.306;10.484;2023-06-14T06:11:58;0.90;;;0.90;;
4186;SDS011;2107;52.306;10.484;2023-06-14T06:14:25;1.20;;;1.20;;
4186;SDS011;2107;52.306;10.484;2023-06-14T06:16:53;1.20;;;1.20;;
4186;SDS011;2107;52.306;10.484;2023-06-14T06:19:20;1.40;;;1.40;;
4186;SDS011;2107;52.306;10.484;2023-06-14T06:21:47;1.30;;;1.30;;
4186;SDS011;2107;52.306;10.484;2023-06-14T06:24:14;1.00;;;1.00;;
4186;SDS011;2107;52.306;10.484;2023-06-14T06:26:41;1.20;;;1.20;;
4186;SDS011;2107;52.306;10.484;2023-06-14T06:29:08;1.30;;;1.30;;
4186;SDS011;2107;52.306;10.484;2023-06-14T06:31:35;1.10;;;1.10;;
4186;SDS011;2107;52.306;10.484;2023-06-14T06:34:03;1.40;;;1.40;;
4186;SDS011;2107;52.306;10.484;2023-06-14T06:36:30;1.17;;;1.17;;
4186;SDS011;2107;52.306;10.484;2023-06-14T06:38:57;1.30;;;1.30;;
4186;SDS011;2107;52.306;10.484;2023-06-14T06:41:23;1.20;;;1.20;;
4186;SDS011;2107;52.306;10.484;2023-06-14T06:43:50;1.30;;;1.30;;
4186;SDS011;2107;52.306;10.484;2023-06-14T06:46:17;1.30;;;1.30;;
4186;SDS011;2107;52.306;10.484;2023-06-14T06:48:44;1.20;;;1.20;;
4186;SDS011;2107;52.306;10.484;2023-06-14T06:51:12;1.20;;;1.20;;
4186;SDS011;2107;52.306;10.484;2023-06-14T06:53:41;1.20;;;1.20;;
4186;SDS011;2107;52.306;10.484;2023-06-14T06:56:09;1.10;;;1.10;;
4186;SDS011;2107;52.306;10.484;2023-06-14T06:58:36;1.00;;;1.00;;
4186;SDS011;2107;52.306;10.484;2023-06-14T07:01:02;0.90;;;0.90;;
4186;SDS011;2107;52.306;10.484;2023-06-14T07:03:29;1.10;;;1.10;;
4186;SDS011;2107;52.306;10.484;2023-06-14T07:05:56;0.90;;;0.90;;
4186;SDS011;2107;52.306;10.484;2023-06-14T07:08:24;1.00;;;1.00;;
4186;SDS011;2107;52.306;10.484;2023-06-14T07:10:52;1.00;;;1.00;;
4186;SDS011;2107;52.306;10.484;2023-06-14T07:13:18;1.00;;;1.00;;
4186;SDS011;2107;52.306;10.484;2023-06-14T07:15:46;1.30;;;1.30;;
4186;SDS011;2107;52.306;10.484;2023-06-14T07:18:13;1.30;;;1.30;;
4186;SDS011;2107;52.306;10.484;2023-06-14T07:20:40;1.00;;;1.00;;
4186;SDS011;2107;52.306;10.484;2023-06-14T07:23:08;0.90;;;0.90;;
4186;SDS011;2107;52.306;10.484;2023-06-14T07:25:37;1.10;;;1.10;;
4186;SDS011;2107;52.306;10.484;2023-06-14T07:28:04;1.20;;;1.20;;
4186;SDS011;2107;52.306;10.484;2023-06-14T07:30:31;1.10;;;1.10;;
4186;SDS011;2107;52.306;10.484;2023-06-14T07:32:58;1.30;;;1.30;;
4186;SDS011;2107;52.306;10.484;2023-06-14T07:35:25;0.80;;;0.80;;
4186;SDS011;2107;52.306;10.484;2023-06-14T07:37:52;0.90;;;0.90;;
4186;SDS011;2107;52.306;10.484;2023-06-14T07:40:18;1.20;;;1.20;;
4186;SDS011;2107;52.306;10.484;2023-06-14T07:42:47;1.10;;;1.10;;
4186;SDS011;2107;52.306;10.484;2023-06-14T07:45:15;1.20;;;1.20;;
4186;SDS011;2107;52.306;10.484;2023-06-14T07:47:42;1.10;;;1.10;;
4186;SDS011;2107;52.306;10.484;2023-06-14T07:50:09;1.10;;;1.10;;
4186;SDS011;2107;52.306;10.484;2023-06-14T07:52:36;0.90;;;0.90;;
4186;SDS011;2107;52.306;10.484;2023-06-14T07:55:04;1.10;;;1.10;;
4186;SDS011;2107;52.306;10.484;2023-06-14T07:57:32;1.00;;;1.00;;
4186;SDS011;2107;52.306;10.484;2023-06-14T08:00:00;1.00;;;1.00;;
4186;SDS011;2107;52.306;10.484;2023-06-14T08:02:27;1.20;;;1.20;;
4186;SDS011;2107;52.306;10.484;2023-06-14T08:04:54;1.00;;;1.00;;
4186;SDS011;2107;52.306;10.484;2023-06-14T08:07:20;1.00;;;1.00;;
4186;SDS011;2107;52.306;10.484;2023-06-14T08:09:48;0.90;;;0.90;;
4186;SDS011;2107;52.306;10.484;2023-06-14T08:12:15;0.80;;;0.80;;
4186;SDS011;2107;52.306;10.484;2023-06-14T08:14:42;1.10;;;1.10;;
4186;SDS011;2107;52.306;10.484;2023-06-14T08:17:10;1.20;;;1.20;;
4186;SDS011;2107;52.306;10.484;2023-06-14T08:19:37;1.07;;;1.07;;
4186;SDS011;2107;52.306;10.484;2023-06-14T08:22:04;0.90;;;0.90;;
4186;SDS011;2107;52.306;10.484;2023-06-14T08:24:31;0.80;;;0.80;;
4186;SDS011;2107;52.306;10.484;2023-06-14T08:26:58;0.80;;;0.80;;
4186;SDS011;2107;52.306;10.484;2023-06-14T08:29:26;1.20;;;1.20;;
4186;SDS011;2107;52.306;10.484;2023-06-14T08:31:55;1.20;;;1.20;;
4186;SDS011;2107;52.306;10.484;2023-06-14T08:34:24;1.10;;;1.10;;
4186;SDS011;2107;52.306;10.484;2023-06-14T08:36:51;1.10;;;1.10;;
4186;SDS011;2107;52.306;10.484;2023-06-14T08:39:18;1.30;;;1.30;;
4186;SDS011;2107;52.306;10.484;2023-06-14T08:41:45;1.30;;;1.30;;
4186;SDS011;2107;52.306;10.484;2023-06-14T08:44:14;1.20;;;1.20;;
4186;SDS011;2107;52.306;10.484;2023-06-14T08:46:41;1.00;;;1.00;;
4186;SDS011;2107;52.306;10.484;2023-06-14T08:49:08;1.10;;;1.10;;
4186;SDS011;2107;52.306;10.484;2023-06-14T08:51:40;1.07;;;1.07;;
4186;SDS011;2107;52.306;10.484;2023-06-14T08:54:08;0.80;;;0.80;;
4186;SDS011;2107;52.306;10.484;2023-06-14T08:56:37;1.10;;;1.10;;
4186;SDS011;2107;52.306;10.484;2023-06-14T08:59:06;0.90;;;0.90;;
4186;SDS011;2107;52.306;10.484;2023-06-14T09:01:35;1.10;;;1.10;;
4186;SDS011;2107;52.306;10.484;2023-06-14T09:04:03;0.80;;;0.80;;
4186;SDS011;2107;52.306;10.484;2023-06-14T09:06:31;0.80;;;0.80;;
4186;SDS011;2107;52.306;10.484;2023-06-14T09:08:59;0.80;;;0.80;;
4186;SDS011;2107;52.306;10.484;2023-06-14T09:11:27;0.90;;;0.90;;
4186;SDS011;2107;52.306;10.484;2023-06-14T09:13:54;0.90;;;0.90;;
4186;SDS011;2107;52.306;10.484;2023-06-14T09:16:20;0.80;;;0.80;;
4186;SDS011;2107;52.306;10.484;2023-06-14T09:18:48;0.90;;;0.90;;
4186;SDS011;2107;52.306;10.484;2023-06-14T09:21:15;0.80;;;0.80;;
4186;SDS011;2107;52.306;10.484;2023-06-14T09:23:43;0.90;;;0.90;;
4186;SDS011;2107;52.306;10.484;2023-06-14T09:26:14;0.93;;;0.93;;
4186;SDS011;2107;52.306;10.484;2023-06-14T09:28:43;1.10;;;1.10;;
4186;SDS011;2107;52.306;10.484;2023-06-14T09:31:11;1.00;;;1.00;;
4186;SDS011;2107;52.306;10.484;2023-06-14T09:33:42;1.00;;;1.00;;
4186;SDS011;2107;52.306;10.484;2023-06-14T09:36:14;1.10;;;1.10;;
4186;SDS011;2107;52.306;10.484;2023-06-14T09:38:51;1.10;;;1.10;;
4186;SDS011;2107;52.306;10.484;2023-06-14T09:41:20;0.90;;;0.90;;
4186;SDS011;2107;52.306;10.484;2023-06-14T09:43:59;1.07;;;1.07;;
4186;SDS011;2107;52.306;10.484;2023-06-14T09:46:29;1.20;;;1.20;;
4186;SDS011;2107;52.306;10.484;2023-06-14T09:48:56;1.23;;;1.23;;
4186;SDS011;2107;52.306;10.484;2023-06-14T09:51:24;1.20;;;1.20;;
4186;SDS011;2107;52.306;10.484;2023-06-14T09:53:52;1.50;;;1.50;;
4186;SDS011;2107;52.306;10.484;2023-06-14T09:56:27;1.40;;;1.40;;
4186;SDS011;2107;52.306;10.484;2023-06-14T09:58:55;1.30;;;1.30;;
4186;SDS011;2107;52.306;10.484;2023-06-14T10:01:25;1.30;;;1.30;;
4186;SDS011;2107;52.306;10.484;2023-06-14T10:03:55;1.50;;;1.50;;
4186;SDS011;2107;52.306;10.484;2023-06-14T10:06:26;0.90;;;0.90;;
4186;SDS011;2107;52.306;10.484;2023-06-14T10:08:59;0.90;;;0.90;;
4186;SDS011;2107;52.306;10.484;2023-06-14T10:11:30;1.00;;;1.00;;
4186;SDS011;2107;52.306;10.484;2023-06-14T10:13:57;1.00;;;1.00;;
4186;SDS011;2107;52.306;10.484;2023-06-14T10:16:27;1.07;;;1.07;;
4186;SDS011;2107;52.306;10.484;2023-06-14T10:19:00;1.20;;;1.20;;
4186;SDS011;2107;52.306;10.484;2023-06-14T10:21:36;1.10;;;1.10;;
4186;SDS011;2107;52.306;10.484;2023-06-14T10:24:21;1.20;;;1.20;;
4186;SDS011;2107;52.306;10.484;2023-06-14T10:26:56;1.20;;;1.20;;
4186;SDS011;2107;52.306;10.484;2023-06-14T10:29:24;1.00;;;1.00;;
4186;SDS011;2107;52.306;10.484;2023-06-14T10:31:55;1.10;;;1.10;;
4186;SDS011;2107;52.306;10.484;2023-06-14T10:34:23;1.20;;;1.20;;
4186;SDS011;2107;52.306;10.484;2023-06-14T10:37:01;1.20;;;1.20;;
4186;SDS011;2107;52.306;10.484;2023-06-14T10:39:29;1.20;;;1.20;;
4186;SDS011;2107;52.306;10.484;2023-06-14T10:41:58;1.40;;;1.40;;
4186;SDS011;2107;52.306;10.484;2023-06-14T10:44:42;1.40;;;1.40;;
4186;SDS011;2107;52.306;10.484;2023-06-14T10:47:10;1.10;;;1.10;;
4186;SDS011;2107;52.306;10.484;2023-06-14T10:49:49;1.13;;;1.13;;
4186;SDS011;2107;52.306;10.484;2023-06-14T10:52:20;1.10;;;1.10;;
4186;SDS011;2107;52.306;10.484;2023-06-14T10:54:55;1.10;;;1.10;;
4186;SDS011;2107;52.306;10.484;2023-06-14T10:57:36;1.20;;;1.20;;
4186;SDS011;2107;52.306;10.484;2023-06-14T11:00:06;1.30;;;1.30;;
4186;SDS011;2107;52.306;10.484;2023-06-14T11:03:04;1.37;;;1.37;;
4186;SDS011;2107;52.306;10.484;2023-06-14T11:06:10;1.33;;;1.33;;
4186;SDS011;2107;52.306;10.484;2023-06-14T11:08:51;0.70;;;0.70;;
4186;SDS011;2107;52.306;10.484;2023-06-14T11:11:38;1.00;;;1.00;;
4186;SDS011;2107;52.306;10.484;2023-06-14T11:14:11;1.33;;;1.33;;
4186;SDS011;2107;52.306;10.484;2023-06-14T11:16:38;1.50;;;1.50;;
4186;SDS011;2107;52.306;10.484;2023-06-14T11:19:05;1.00;;;1.00;;
4186;SDS011;2107;52.306;10.484;2023-06-14T11:21:32;1.40;;;1.40;;
4186;SDS011;2107;52.306;10.484;2023-06-14T11:23:59;1.50;;;1.50;;
4186;SDS011;2107;52.306;10.484;2023-06-14T11:26:26;1.90;;;1.90;;
4186;SDS011;2107;52.306;10.484;2023-06-14T11:28:57;2.00;;;2.00;;
4186;SDS011;2107;52.306;10.484;2023-06-14T11:31:26;1.43;;;1.43;;
4186;SDS011;2107;52.306;10.484;2023-06-14T11:33:54;1.70;;;1.70;;
4186;SDS011;2107;52.306;10.484;2023-06-14T11:36:22;2.00;;;2.00;;
4186;SDS011;2107;52.306;10.484;2023-06-14T11:38:48;1.50;;;1.50;;
4186;SDS011;2107;52.306;10.484;2023-06-14T11:41:15;1.50;;;1.50;;
4186;SDS011;2107;52.306;10.484;2023-06-14T11:43:42;1.37;;;1.37;;
4186;SDS011;2107;52.306;10.484;2023-06-14T11:46:12;1.30;;;1.30;;
4186;SDS011;2107;52.306;10.484;2023-06-14T11:48:43;1.40;;;1.40;;
4186;SDS011;2107;52.306;10.484;2023-06-14T11:51:10;1.10;;;1.10;;
4186;SDS011;2107;52.306;10.484;2023-06-14T11:53:37;1.30;;;1.30;;
4186;SDS011;2107;52.306;10.484;2023-06-14T11:56:04;1.30;;;1.30;;
4186;SDS011;2107;52.306;10.484;2023-06-14T11:58:31;1.40;;;1.40;;
4186;SDS011;2107;52.306;10.484;2023-06-14T12:00:58;1.70;;;1.70;;
4186;SDS011;2107;52.306;10.484;2023-06-14T12:03:25;1.40;;;1.40;;
4186;SDS011;2107;52.306;10.484;2023-06-14T12:06:05;1.30;;;1.30;;
4186;SDS011;2107;52.306;10.484;2023-06-14T12:08:33;1.40;;;1.40;;
4186;SDS011;2107;52.306;10.484;2023-06-14T12:11:04;1.03;;;1.03;;
4186;SDS011;2107;52.306;10.484;2023-06-14T12:13:31;1.47;;;1.47;;
4186;SDS011;2107;52.306;10.484;2023-06-14T12:15:58;1.30;;;1.30;;
4186;SDS011;2107;52.306;10.484;2023-06-14T12:18:33;1.20;;;1.20;;
4186;SDS011;2107;52.306;10.484;2023-06-14T12:21:03;1.30;;;1.30;;
4186;SDS011;2107;52.306;10.484;2023-06-14T12:23:39;1.10;;;1.10;;
4186;SDS011;2107;52.306;10.484;2023-06-14T12:26:08;1.67;;;1.67;;
4186;SDS011;2107;52.306;10.484;2023-06-14T12:28:35;1.40;;;1.40;;
4186;SDS011;2107;52.306;10.484;2023-06-14T12:31:02;1.30;;;1.30;;
4186;SDS011;2107;52.306;10.484;2023-06-14T12:33:29;1.60;;;1.60;;
4186;SDS011;2107;52.306;10.484;2023-06-14T12:35:56;1.90;;;1.90;;
4186;SDS011;2107;52.306;10.484;2023-06-14T12:38:25;1.90;;;1.90;;
4186;SDS011;2107;52.306;10.484;2023-06-14T12:40:52;1.77;;;1.77;;
4186;SDS011;2107;52.306;10.484;2023-06-14T12:43:19;1.50;;;1.50;;
4186;SDS011;2107;52.306;10.484;2023-06-14T12:45:46;1.93;;;1.93;;
4186;SDS011;2107;52.306;10.484;2023-06-14T12:48:13;1.40;;;1.40;;
4186;SDS011;2107;52.306;10.484;2023-06-14T12:50:40;1.80;;;1.80;;
4186;SDS011;2107;52.306;10.484;2023-06-14T12:53:07;1.60;;;1.60;;
4186;SDS011;2107;52.306;10.484;2023-06-14T12:55:35;1.30;;;1.30;;
4186;SDS011;2107;52.306;10.484;2023-06-14T12:58:02;1.57;;;1.57;;
4186;SDS011;2107;52.306;10.484;2023-06-14T13:00:29;1.50;;;1.50;;
4186;SDS011;2107;52.306;10.484;2023-06-14T13:02:56;1.30;;;1.30;;
4186;SDS011;2107;52.306;10.484;2023-06-14T13:05:23;1.30;;;1.30;;
4186;SDS011;2107;52.306;10.484;2023-06-14T13:07:50;1.40;;;1.40;;
4186;SDS011;2107;52.306;10.484;2023-06-14T13:10:17;1.60;;;1.60;;
4186;SDS011;2107;52.306;10.484;2023-06-14T13:12:45;1.50;;;1.50;;
4186;SDS011;2107;52.306;10.484;2023-06-14T13:15:12;1.60;;;1.60;;
4186;SDS011;2107;52.306;10.484;2023-06-14T13:17:39;1.10;;;1.10;;
4186;SDS011;2107;52.306;10.484;2023-06-14T13:20:09;0.90;;;0.90;;
4186;SDS011;2107;52.306;10.484;2023-06-14T13:22:36;1.40;;;1.40;;
4186;SDS011;2107;52.306;10.484;2023-06-14T13:25:05;1.40;;;1.40;;
4186;SDS011;2107;52.306;10.484;2023-06-14T13:27:32;1.70;;;1.70;;
4186;SDS011;2107;52.306;10.484;2023-06-14T13:30:01;2.00;;;2.00;;
4186;SDS011;2107;52.306;10.484;2023-06-14T13:32:28;1.60;;;1.60;;
4186;SDS011;2107;52.306;10.484;2023-06-14T13:34:54;1.70;;;1.70;;
4186;SDS011;2107;52.306;10.484;2023-06-14T13:37:21;1.63;;;1.63;;
4186;SDS011;2107;52.306;10.484;2023-06-14T13:39:49;1.60;;;1.60;;
4186;SDS011;2107;52.306;10.484;2023-06-14T13:42:15;1.57;;;1.57;;
4186;SDS011;2107;52.306;10.484;2023-06-14T13:44:43;1.90;;;1.90;;
4186;SDS011;2107;52.306;10.484;2023-06-14T13:47:11;2.03;;;2.03;;
4186;SDS011;2107;52.306;10.484;2023-06-14T13:49:38;1.80;;;1.80;;
4186;SDS011;2107;52.306;10.484;2023-06-14T13:52:05;2.10;;;2.10;;
4186;SDS011;2107;52.306;10.484;2023-06-14T13:54:32;2.27;;;2.27;;
4186;SDS011;2107;52.306;10.484;2023-06-14T13:56:59;1.60;;;1.60;;
4186;SDS011;2107;52.306;10.484;2023-06-14T13:59:26;1.70;;;1.70;;
4186;SDS011;2107;52.306;10.484;2023-06-14T14:01:53;2.10;;;2.10;;
4186;SDS011;2107;52.306;10.484;2023-06-14T14:04:21;1.80;;;1.80;;
4186;SDS011;2107;52.306;10.484;2023-06-14T14:06:48;1.80;;;1.80;;
4186;SDS011;2107;52.306;10.484;2023-06-14T14:09:15;1.90;;;1.90;;
4186;SDS011;2107;52.306;10.484;2023-06-14T14:11:41;1.50;;;1.50;;
4186;SDS011;2107;52.306;10.484;2023-06-14T14:14:08;1.60;;;1.60;;
4186;SDS011;2107;52.306;10.484;2023-06-14T14:16:36;1.50;;;1.50;;
4186;SDS011;2107;52.306;10.484;2023-06-14T14:19:03;1.00;;;1.00;;
4186;SDS011;2107;52.306;10.484;2023-06-14T14:21:32;1.43;;;1.43;;
4186;SDS011;2107;52.306;10.484;2023-06-14T14:23:59;1.10;;;1.10;;
4186;SDS011;2107;52.306;10.484;2023-06-14T14:26:25;1.50;;;1.50;;
4186;SDS011;2107;52.306;10.484;2023-06-14T14:28:52;1.50;;;1.50;;
4186;SDS011;2107;52.306;10.484;2023-06-14T14:31:19;1.30;;;1.30;;
4186;SDS011;2107;52.306;10.484;2023-06-14T14:33:46;1.50;;;1.50;;
4186;SDS011;2107;52.306;10.484;2023-06-14T14:36:13;1.40;;;1.40;;
4186;SDS011;2107;52.306;10.484;2023-06-14T14:38:41;1.37;;;1.37;;
4186;SDS011;2107;52.306;10.484;2023-06-14T14:41:08;1.20;;;1.20;;
4186;SDS011;2107;52.306;10.484;2023-06-14T14:43:35;1.70;;;1.70;;
4186;SDS011;2107;52.306;10.484;2023-06-14T14:46:02;1.30;;;1.30;;
4186;SDS011;2107;52.306;10.484;2023-06-14T14:48:29;1.73;;;1.73;;
4186;SDS011;2107;52.306;10.484;2023-06-14T14:50:55;1.60;;;1.60;;
4186;SDS011;2107;52.306;10.484;2023-06-14T14:53:22;1.60;;;1.60;;
4186;SDS011;2107;52.306;10.484;2023-06-14T14:55:51;1.90;;;1.90;;
4186;SDS011;2107;52.306;10.484;2023-06-14T14:58:18;1.47;;;1.47;;
4186;SDS011;2107;52.306;10.484;2023-06-14T15:00:45;1.30;;;1.30;;
4186;SDS011;2107;52.306;10.484;2023-06-14T15:03:12;1.20;;;1.20;;
4186;SDS011;2107;52.306;10.484;2023-06-14T15:05:39;2.17;;;2.17;;
4186;SDS011;2107;52.306;10.484;2023-06-14T15:08:06;1.87;;;1.87;;
4186;SDS011;2107;52.306;10.484;2023-06-14T15:10:37;1.97;;;1.97;;